sensor_id;sensor_type;location;lat;lon;timestamp;temperature;humidity
35127;DHT22;21300;52.006;5.798;2024-03-22T00:00:03;10.10;99.90
35127;DHT22;21300;52.006;5.798;2024-03-22T00:02:29;10.20;99.90
35127;DHT22;21300;52.006;5.798;2024-03-22T00:04:55;10.20;99.90
35127;DHT22;21300;52.006;5.798;2024-03-22T00:07:20;10.20;99.90
35127;DHT22;21300;52.006;5.798;2024-03-22T00:09:46;10.20;99.90
35127;DHT22;21300;52.006;5.798;2024-03-22T00:12:11;10.30;99.90
35127;DHT22;21300;52.006;5.798;2024-03-22T00:14:37;10.30;99.90
35127;DHT22;21300;52.006;5.798;2024-03-22T00:17:03;10.30;99.90
35127;DHT22;21300;52.006;5.798;2024-03-22T00:19:28;10.30;99.90
35127;DHT22;21300;52.006;5.798;2024-03-22T00:21:54;10.40;99.90
35127;DHT22;21300;52.006;5.798;2024-03-22T00:24:19;10.40;99.90
35127;DHT22;21300;52.006;5.798;2024-03-22T00:26:45;10.40;99.90
35127;DHT22;21300;52.006;5.798;2024-03-22T00:29:11;10.40;99.90
35127;DHT22;21300;52.006;5.798;2024-03-22T00:31:36;10.40;99.90
35127;DHT22;21300;52.006;5.798;2024-03-22T00:34:02;10.40;99.90
35127;DHT22;21300;52.006;5.798;2024-03-22T00:36:27;10.40;99.90
35127;DHT22;21300;52.006;5.798;2024-03-22T00:38:53;10.40;99.90
35127;DHT22;21300;52.006;5.798;2024-03-22T00:41:19;10.40;99.90
35127;DHT22;21300;52.006;5.798;2024-03-22T00:43:44;10.40;99.90
35127;DHT22;21300;52.006;5.798;2024-03-22T00:46:10;10.50;99.90
35127;DHT22;21300;52.006;5.798;2024-03-22T00:48:36;10.40;99.90
35127;DHT22;21300;52.006;5.798;2024-03-22T00:51:02;10.40;99.90
35127;DHT22;21300;52.006;5.798;2024-03-22T00:53:28;10.40;99.90
35127;DHT22;21300;52.006;5.798;2024-03-22T00:55:55;10.40;99.90
35127;DHT22;21300;52.006;5.798;2024-03-22T00:58:21;10.40;99.90
35127;DHT22;21300;52.006;5.798;2024-03-22T01:00:47;10.40;99.90
35127;DHT22;21300;52.006;5.798;2024-03-22T01:03:13;10.40;99.90
35127;DHT22;21300;52.006;5.798;2024-03-22T01:05:39;10.40;99.90
35127;DHT22;21300;52.006;5.798;2024-03-22T01:08:06;10.50;99.90
35127;DHT22;21300;52.006;5.798;2024-03-22T01:10:33;10.40;99.90
35127;DHT22;21300;52.006;5.798;2024-03-22T01:12:59;10.40;99.90
35127;DHT22;21300;52.006;5.798;2024-03-22T01:15:25;10.40;99.90
35127;DHT22;21300;52.006;5.798;2024-03-22T01:17:50;10.40;99.90
35127;DHT22;21300;52.006;5.798;2024-03-22T01:20:17;10.40;99.90
35127;DHT22;21300;52.006;5.798;2024-03-22T01:22:43;10.40;99.90
35127;DHT22;21300;52.006;5.798;2024-03-22T01:25:27;10.40;99.90
35127;DHT22;21300;52.006;5.798;2024-03-22T01:27:54;10.40;99.90
35127;DHT22;21300;52.006;5.798;2024-03-22T01:30:20;10.40;99.90
35127;DHT22;21300;52.006;5.798;2024-03-22T01:32:46;10.40;99.90
35127;DHT22;21300;52.006;5.798;2024-03-22T01:35:11;10.40;99.90
35127;DHT22;21300;52.006;5.798;2024-03-22T01:37:37;10.40;99.90
35127;DHT22;21300;52.006;5.798;2024-03-22T01:40:03;10.40;99.90
35127;DHT22;21300;52.006;5.798;2024-03-22T01:42:30;10.40;99.90
35127;DHT22;21300;52.006;5.798;2024-03-22T01:44:56;10.40;99.90
35127;DHT22;21300;52.006;5.798;2024-03-22T01:47:21;10.30;99.90
35127;DHT22;21300;52.006;5.798;2024-03-22T01:49:49;10.30;99.90
35127;DHT22;21300;52.006;5.798;2024-03-22T01:52:16;10.30;99.90
35127;DHT22;21300;52.006;5.798;2024-03-22T01:54:41;10.30;99.90
35127;DHT22;21300;52.006;5.798;2024-03-22T01:57:08;10.30;99.90
35127;DHT22;21300;52.006;5.798;2024-03-22T01:59:34;10.30;99.90
35127;DHT22;21300;52.006;5.798;2024-03-22T02:02:00;10.30;99.90
35127;DHT22;21300;52.006;5.798;2024-03-22T02:04:25;10.30;99.90
35127;DHT22;21300;52.006;5.798;2024-03-22T02:06:51;10.20;99.90
35127;DHT22;21300;52.006;5.798;2024-03-22T02:09:17;10.20;99.90
35127;DHT22;21300;52.006;5.798;2024-03-22T02:11:43;10.20;99.90
35127;DHT22;21300;52.006;5.798;2024-03-22T02:14:08;10.30;99.90
35127;DHT22;21300;52.006;5.798;2024-03-22T02:16:34;10.30;99.90
35127;DHT22;21300;52.006;5.798;2024-03-22T02:19:00;10.30;99.90
35127;DHT22;21300;52.006;5.798;2024-03-22T02:21:25;10.30;99.90
35127;DHT22;21300;52.006;5.798;2024-03-22T02:23:51;10.30;99.90
35127;DHT22;21300;52.006;5.798;2024-03-22T02:26:16;10.40;99.90
35127;DHT22;21300;52.006;5.798;2024-03-22T02:28:42;10.40;99.90
35127;DHT22;21300;52.006;5.798;2024-03-22T02:31:08;10.40;99.90
35127;DHT22;21300;52.006;5.798;2024-03-22T02:33:33;10.40;99.90
35127;DHT22;21300;52.006;5.798;2024-03-22T02:35:59;10.40;99.90
35127;DHT22;21300;52.006;5.798;2024-03-22T02:38:24;10.40;99.90
35127;DHT22;21300;52.006;5.798;2024-03-22T02:40:52;10.40;99.90
35127;DHT22;21300;52.006;5.798;2024-03-22T02:43:18;10.40;99.90
35127;DHT22;21300;52.006;5.798;2024-03-22T02:45:44;10.40;99.90
35127;DHT22;21300;52.006;5.798;2024-03-22T02:48:11;10.40;99.90
35127;DHT22;21300;52.006;5.798;2024-03-22T02:50:37;10.40;99.90
35127;DHT22;21300;52.006;5.798;2024-03-22T02:53:04;10.50;99.90
35127;DHT22;21300;52.006;5.798;2024-03-22T02:55:30;10.40;99.90
35127;DHT22;21300;52.006;5.798;2024-03-22T02:57:59;10.50;99.90
35127;DHT22;21300;52.006;5.798;2024-03-22T03:00:24;10.50;99.90
35127;DHT22;21300;52.006;5.798;2024-03-22T03:02:53;10.50;99.90
35127;DHT22;21300;52.006;5.798;2024-03-22T03:05:19;10.50;99.90
35127;DHT22;21300;52.006;5.798;2024-03-22T03:07:45;10.40;99.90
35127;DHT22;21300;52.006;5.798;2024-03-22T03:10:12;10.40;99.90
35127;DHT22;21300;52.006;5.798;2024-03-22T03:12:38;10.40;99.90
35127;DHT22;21300;52.006;5.798;2024-03-22T03:15:04;10.50;99.90
35127;DHT22;21300;52.006;5.798;2024-03-22T03:17:29;10.40;99.90
35127;DHT22;21300;52.006;5.798;2024-03-22T03:19:55;10.40;99.90
35127;DHT22;21300;52.006;5.798;2024-03-22T03:22:20;10.40;99.90
35127;DHT22;21300;52.006;5.798;2024-03-22T03:24:46;10.40;99.90
35127;DHT22;21300;52.006;5.798;2024-03-22T03:27:12;10.40;99.90
35127;DHT22;21300;52.006;5.798;2024-03-22T03:29:37;10.40;99.90
35127;DHT22;21300;52.006;5.798;2024-03-22T03:32:03;10.40;99.90
35127;DHT22;21300;52.006;5.798;2024-03-22T03:34:29;10.50;99.90
35127;DHT22;21300;52.006;5.798;2024-03-22T03:36:55;10.40;99.90
35127;DHT22;21300;52.006;5.798;2024-03-22T03:39:21;10.50;99.90
35127;DHT22;21300;52.006;5.798;2024-03-22T03:41:46;10.50;99.90
35127;DHT22;21300;52.006;5.798;2024-03-22T03:44:12;10.50;99.90
35127;DHT22;21300;52.006;5.798;2024-03-22T03:46:37;10.50;99.90
35127;DHT22;21300;52.006;5.798;2024-03-22T03:49:03;10.50;99.90
35127;DHT22;21300;52.006;5.798;2024-03-22T03:51:29;10.60;99.90
35127;DHT22;21300;52.006;5.798;2024-03-22T03:53:54;10.60;99.90
35127;DHT22;21300;52.006;5.798;2024-03-22T03:56:20;10.60;99.90
35127;DHT22;21300;52.006;5.798;2024-03-22T03:58:46;10.60;99.90
35127;DHT22;21300;52.006;5.798;2024-03-22T04:01:12;10.50;99.90
35127;DHT22;21300;52.006;5.798;2024-03-22T04:03:37;10.50;99.90
35127;DHT22;21300;52.006;5.798;2024-03-22T04:06:03;10.60;99.90
35127;DHT22;21300;52.006;5.798;2024-03-22T04:08:29;10.50;99.90
35127;DHT22;21300;52.006;5.798;2024-03-22T04:10:56;10.50;99.90
35127;DHT22;21300;52.006;5.798;2024-03-22T04:13:26;10.50;99.90
35127;DHT22;21300;52.006;5.798;2024-03-22T04:15:52;10.50;99.90
35127;DHT22;21300;52.006;5.798;2024-03-22T04:18:18;10.50;99.90
35127;DHT22;21300;52.006;5.798;2024-03-22T04:20:57;10.50;99.90
35127;DHT22;21300;52.006;5.798;2024-03-22T04:23:24;10.50;99.90
35127;DHT22;21300;52.006;5.798;2024-03-22T04:25:57;10.50;99.90
35127;DHT22;21300;52.006;5.798;2024-03-22T04:28:30;10.40;99.90
35127;DHT22;21300;52.006;5.798;2024-03-22T04:31:06;10.40;99.90
35127;DHT22;21300;52.006;5.798;2024-03-22T04:33:33;10.40;99.90
35127;DHT22;21300;52.006;5.798;2024-03-22T04:35:59;10.40;99.90
35127;DHT22;21300;52.006;5.798;2024-03-22T04:38:26;10.30;99.90
35127;DHT22;21300;52.006;5.798;2024-03-22T04:40:52;10.30;99.90
35127;DHT22;21300;52.006;5.798;2024-03-22T04:43:18;10.30;99.90
35127;DHT22;21300;52.006;5.798;2024-03-22T04:45:45;10.30;99.90
35127;DHT22;21300;52.006;5.798;2024-03-22T04:48:15;10.30;99.90
35127;DHT22;21300;52.006;5.798;2024-03-22T04:50:40;10.20;99.90
35127;DHT22;21300;52.006;5.798;2024-03-22T04:53:06;10.20;99.90
35127;DHT22;21300;52.006;5.798;2024-03-22T04:55:32;10.20;99.90
35127;DHT22;21300;52.006;5.798;2024-03-22T04:58:01;10.20;99.90
35127;DHT22;21300;52.006;5.798;2024-03-22T05:00:28;10.10;99.90
35127;DHT22;21300;52.006;5.798;2024-03-22T05:02:53;10.10;99.90
35127;DHT22;21300;52.006;5.798;2024-03-22T05:05:21;10.00;99.90
35127;DHT22;21300;52.006;5.798;2024-03-22T05:07:47;10.00;99.90
35127;DHT22;21300;52.006;5.798;2024-03-22T05:10:13;10.00;99.90
35127;DHT22;21300;52.006;5.798;2024-03-22T05:12:38;9.90;99.90
35127;DHT22;21300;52.006;5.798;2024-03-22T05:15:06;9.90;99.90
35127;DHT22;21300;52.006;5.798;2024-03-22T05:17:32;9.90;99.90
35127;DHT22;21300;52.006;5.798;2024-03-22T05:19:59;9.90;99.90
35127;DHT22;21300;52.006;5.798;2024-03-22T05:22:25;9.80;99.90
35127;DHT22;21300;52.006;5.798;2024-03-22T05:24:50;9.80;99.90
35127;DHT22;21300;52.006;5.798;2024-03-22T05:27:17;9.80;99.90
35127;DHT22;21300;52.006;5.798;2024-03-22T05:29:43;9.80;99.90
35127;DHT22;21300;52.006;5.798;2024-03-22T05:32:08;9.80;99.90
35127;DHT22;21300;52.006;5.798;2024-03-22T05:34:34;9.80;99.90
35127;DHT22;21300;52.006;5.798;2024-03-22T05:37:01;9.80;99.90
35127;DHT22;21300;52.006;5.798;2024-03-22T05:39:27;9.80;99.90
35127;DHT22;21300;52.006;5.798;2024-03-22T05:41:52;9.80;99.90
35127;DHT22;21300;52.006;5.798;2024-03-22T05:44:21;9.80;99.90
35127;DHT22;21300;52.006;5.798;2024-03-22T05:46:46;9.80;99.90
35127;DHT22;21300;52.006;5.798;2024-03-22T05:49:12;9.80;99.90
35127;DHT22;21300;52.006;5.798;2024-03-22T05:51:38;9.80;99.90
35127;DHT22;21300;52.006;5.798;2024-03-22T05:54:03;9.80;99.90
35127;DHT22;21300;52.006;5.798;2024-03-22T05:56:29;9.80;99.90
35127;DHT22;21300;52.006;5.798;2024-03-22T05:58:55;9.80;99.90
35127;DHT22;21300;52.006;5.798;2024-03-22T06:01:20;9.80;99.90
35127;DHT22;21300;52.006;5.798;2024-03-22T06:03:46;9.80;99.90
35127;DHT22;21300;52.006;5.798;2024-03-22T06:06:11;9.80;99.90
35127;DHT22;21300;52.006;5.798;2024-03-22T06:08:37;9.90;99.90
35127;DHT22;21300;52.006;5.798;2024-03-22T06:11:06;9.80;99.90
35127;DHT22;21300;52.006;5.798;2024-03-22T06:13:32;9.80;99.90
35127;DHT22;21300;52.006;5.798;2024-03-22T06:15:59;9.80;99.90
35127;DHT22;21300;52.006;5.798;2024-03-22T06:18:24;9.80;99.90
35127;DHT22;21300;52.006;5.798;2024-03-22T06:20:50;9.90;99.90
35127;DHT22;21300;52.006;5.798;2024-03-22T06:23:16;9.90;99.90
35127;DHT22;21300;52.006;5.798;2024-03-22T06:25:41;9.90;99.90
35127;DHT22;21300;52.006;5.798;2024-03-22T06:28:16;9.90;99.90
35127;DHT22;21300;52.006;5.798;2024-03-22T06:30:41;9.90;99.90
35127;DHT22;21300;52.006;5.798;2024-03-22T06:33:07;9.90;99.90
35127;DHT22;21300;52.006;5.798;2024-03-22T06:35:32;9.90;99.90
35127;DHT22;21300;52.006;5.798;2024-03-22T06:37:58;9.90;99.90
35127;DHT22;21300;52.006;5.798;2024-03-22T06:40:24;9.90;99.90
35127;DHT22;21300;52.006;5.798;2024-03-22T06:42:50;9.90;99.90
35127;DHT22;21300;52.006;5.798;2024-03-22T06:45:16;9.90;99.90
35127;DHT22;21300;52.006;5.798;2024-03-22T06:47:41;10.00;99.90
35127;DHT22;21300;52.006;5.798;2024-03-22T06:50:07;10.00;99.90
35127;DHT22;21300;52.006;5.798;2024-03-22T06:52:33;10.00;99.90
35127;DHT22;21300;52.006;5.798;2024-03-22T06:54:58;10.10;99.90
35127;DHT22;21300;52.006;5.798;2024-03-22T06:57:24;10.10;99.90
35127;DHT22;21300;52.006;5.798;2024-03-22T06:59:50;10.10;99.90
35127;DHT22;21300;52.006;5.798;2024-03-22T07:02:15;10.10;99.90
35127;DHT22;21300;52.006;5.798;2024-03-22T07:04:41;10.10;99.90
35127;DHT22;21300;52.006;5.798;2024-03-22T07:07:06;10.10;99.90
35127;DHT22;21300;52.006;5.798;2024-03-22T07:09:35;10.10;99.90
35127;DHT22;21300;52.006;5.798;2024-03-22T07:12:01;10.10;99.90
35127;DHT22;21300;52.006;5.798;2024-03-22T07:14:27;10.10;99.90
35127;DHT22;21300;52.006;5.798;2024-03-22T07:16:53;10.30;99.90
35127;DHT22;21300;52.006;5.798;2024-03-22T07:19:21;10.40;99.90
35127;DHT22;21300;52.006;5.798;2024-03-22T07:21:47;10.40;99.90
35127;DHT22;21300;52.006;5.798;2024-03-22T07:24:13;10.50;99.90
35127;DHT22;21300;52.006;5.798;2024-03-22T07:26:39;10.50;99.90
35127;DHT22;21300;52.006;5.798;2024-03-22T07:29:05;10.70;99.90
35127;DHT22;21300;52.006;5.798;2024-03-22T07:31:30;10.80;99.90
35127;DHT22;21300;52.006;5.798;2024-03-22T07:33:56;10.80;99.90
35127;DHT22;21300;52.006;5.798;2024-03-22T07:36:22;10.80;99.90
35127;DHT22;21300;52.006;5.798;2024-03-22T07:38:47;10.80;99.90
35127;DHT22;21300;52.006;5.798;2024-03-22T07:41:14;10.70;99.90
35127;DHT22;21300;52.006;5.798;2024-03-22T07:43:40;10.60;99.90
35127;DHT22;21300;52.006;5.798;2024-03-22T07:46:06;10.50;99.90
35127;DHT22;21300;52.006;5.798;2024-03-22T07:48:32;10.50;99.90
35127;DHT22;21300;52.006;5.798;2024-03-22T07:50:58;10.50;99.90
35127;DHT22;21300;52.006;5.798;2024-03-22T07:53:24;10.50;99.90
35127;DHT22;21300;52.006;5.798;2024-03-22T07:55:50;10.40;99.90
35127;DHT22;21300;52.006;5.798;2024-03-22T07:58:15;10.40;99.90
35127;DHT22;21300;52.006;5.798;2024-03-22T08:00:41;10.40;99.90
35127;DHT22;21300;52.006;5.798;2024-03-22T08:03:08;10.40;99.90
35127;DHT22;21300;52.006;5.798;2024-03-22T08:05:33;10.40;99.90
35127;DHT22;21300;52.006;5.798;2024-03-22T08:07:59;10.40;99.90
35127;DHT22;21300;52.006;5.798;2024-03-22T08:10:24;10.40;99.90
35127;DHT22;21300;52.006;5.798;2024-03-22T08:12:50;10.40;99.90
35127;DHT22;21300;52.006;5.798;2024-03-22T08:15:16;10.40;99.90
35127;DHT22;21300;52.006;5.798;2024-03-22T08:17:41;10.40;99.90
35127;DHT22;21300;52.006;5.798;2024-03-22T08:20:07;10.40;99.90
35127;DHT22;21300;52.006;5.798;2024-03-22T08:22:33;10.40;99.90
35127;DHT22;21300;52.006;5.798;2024-03-22T08:24:58;10.40;99.90
35127;DHT22;21300;52.006;5.798;2024-03-22T08:27:27;10.40;99.90
35127;DHT22;21300;52.006;5.798;2024-03-22T08:29:53;10.50;99.90
35127;DHT22;21300;52.006;5.798;2024-03-22T08:32:18;10.50;99.90
35127;DHT22;21300;52.006;5.798;2024-03-22T08:34:44;10.50;99.90
35127;DHT22;21300;52.006;5.798;2024-03-22T08:37:10;10.40;99.90
35127;DHT22;21300;52.006;5.798;2024-03-22T08:39:36;10.40;99.90
35127;DHT22;21300;52.006;5.798;2024-03-22T08:42:01;10.50;99.90
35127;DHT22;21300;52.006;5.798;2024-03-22T08:44:27;10.50;99.90
35127;DHT22;21300;52.006;5.798;2024-03-22T08:46:52;10.50;99.90
35127;DHT22;21300;52.006;5.798;2024-03-22T08:49:18;10.50;99.90
35127;DHT22;21300;52.006;5.798;2024-03-22T08:51:44;10.50;99.90
35127;DHT22;21300;52.006;5.798;2024-03-22T08:54:11;10.40;99.90
35127;DHT22;21300;52.006;5.798;2024-03-22T08:56:37;10.30;99.90
35127;DHT22;21300;52.006;5.798;2024-03-22T08:59:02;10.20;99.90
35127;DHT22;21300;52.006;5.798;2024-03-22T09:01:28;10.20;99.90
35127;DHT22;21300;52.006;5.798;2024-03-22T09:03:53;10.20;99.90
35127;DHT22;21300;52.006;5.798;2024-03-22T09:06:19;10.10;99.90
35127;DHT22;21300;52.006;5.798;2024-03-22T09:08:45;10.10;99.90
35127;DHT22;21300;52.006;5.798;2024-03-22T09:11:11;10.10;99.90
35127;DHT22;21300;52.006;5.798;2024-03-22T09:13:38;10.20;99.90
35127;DHT22;21300;52.006;5.798;2024-03-22T09:16:03;10.20;99.90
35127;DHT22;21300;52.006;5.798;2024-03-22T09:18:29;10.20;99.90
35127;DHT22;21300;52.006;5.798;2024-03-22T09:20:55;10.20;99.90
35127;DHT22;21300;52.006;5.798;2024-03-22T09:23:22;10.20;99.90
35127;DHT22;21300;52.006;5.798;2024-03-22T09:25:47;10.30;99.90
35127;DHT22;21300;52.006;5.798;2024-03-22T09:28:14;10.30;99.90
35127;DHT22;21300;52.006;5.798;2024-03-22T09:30:40;10.20;99.90
35127;DHT22;21300;52.006;5.798;2024-03-22T09:33:06;10.20;99.90
35127;DHT22;21300;52.006;5.798;2024-03-22T09:35:36;10.30;99.90
35127;DHT22;21300;52.006;5.798;2024-03-22T09:38:02;10.30;99.90
35127;DHT22;21300;52.006;5.798;2024-03-22T09:40:28;10.30;99.90
35127;DHT22;21300;52.006;5.798;2024-03-22T09:42:54;10.20;99.90
35127;DHT22;21300;52.006;5.798;2024-03-22T09:45:25;10.30;99.90
35127;DHT22;21300;52.006;5.798;2024-03-22T09:47:52;10.30;99.90
35127;DHT22;21300;52.006;5.798;2024-03-22T09:50:21;10.20;99.90
35127;DHT22;21300;52.006;5.798;2024-03-22T09:52:47;10.30;99.90
35127;DHT22;21300;52.006;5.798;2024-03-22T09:55:14;10.30;99.90
35127;DHT22;21300;52.006;5.798;2024-03-22T09:57:40;10.30;99.90
35127;DHT22;21300;52.006;5.798;2024-03-22T10:00:08;10.30;99.90
35127;DHT22;21300;52.006;5.798;2024-03-22T10:02:34;10.30;99.90
35127;DHT22;21300;52.006;5.798;2024-03-22T10:05:00;10.30;99.90
35127;DHT22;21300;52.006;5.798;2024-03-22T10:07:28;10.40;99.90
35127;DHT22;21300;52.006;5.798;2024-03-22T10:10:00;10.30;99.90
35127;DHT22;21300;52.006;5.798;2024-03-22T10:12:25;10.40;99.90
35127;DHT22;21300;52.006;5.798;2024-03-22T10:14:57;10.40;99.90
35127;DHT22;21300;52.006;5.798;2024-03-22T10:17:26;10.30;99.90
35127;DHT22;21300;52.006;5.798;2024-03-22T10:19:52;10.30;99.90
35127;DHT22;21300;52.006;5.798;2024-03-22T10:22:18;10.30;99.90
35127;DHT22;21300;52.006;5.798;2024-03-22T10:24:44;10.30;99.90
35127;DHT22;21300;52.006;5.798;2024-03-22T10:27:10;10.30;99.90
35127;DHT22;21300;52.006;5.798;2024-03-22T10:29:36;10.30;99.90
35127;DHT22;21300;52.006;5.798;2024-03-22T10:32:02;10.40;99.90
35127;DHT22;21300;52.006;5.798;2024-03-22T10:34:28;10.40;99.90
35127;DHT22;21300;52.006;5.798;2024-03-22T10:37:02;10.20;99.90
35127;DHT22;21300;52.006;5.798;2024-03-22T10:39:30;10.20;99.90
35127;DHT22;21300;52.006;5.798;2024-03-22T10:41:56;10.20;99.90
35127;DHT22;21300;52.006;5.798;2024-03-22T10:44:21;10.20;99.90
35127;DHT22;21300;52.006;5.798;2024-03-22T10:46:48;10.10;99.90
35127;DHT22;21300;52.006;5.798;2024-03-22T10:49:18;10.10;99.90
35127;DHT22;21300;52.006;5.798;2024-03-22T10:51:58;10.20;99.90
35127;DHT22;21300;52.006;5.798;2024-03-22T10:54:28;10.10;99.90
35127;DHT22;21300;52.006;5.798;2024-03-22T10:56:56;10.10;99.90
35127;DHT22;21300;52.006;5.798;2024-03-22T10:59:23;10.10;99.90
35127;DHT22;21300;52.006;5.798;2024-03-22T11:01:49;10.10;99.90
35127;DHT22;21300;52.006;5.798;2024-03-22T11:04:19;10.10;99.90
35127;DHT22;21300;52.006;5.798;2024-03-22T11:06:51;10.20;99.90
35127;DHT22;21300;52.006;5.798;2024-03-22T11:09:24;10.20;99.90
35127;DHT22;21300;52.006;5.798;2024-03-22T11:11:55;10.20;99.90
35127;DHT22;21300;52.006;5.798;2024-03-22T11:14:22;10.20;99.90
35127;DHT22;21300;52.006;5.798;2024-03-22T11:16:49;10.20;99.90
35127;DHT22;21300;52.006;5.798;2024-03-22T11:19:15;10.20;99.90
35127;DHT22;21300;52.006;5.798;2024-03-22T11:21:41;10.30;99.90
35127;DHT22;21300;52.006;5.798;2024-03-22T11:24:07;10.20;99.90
35127;DHT22;21300;52.006;5.798;2024-03-22T11:26:33;10.20;99.90
35127;DHT22;21300;52.006;5.798;2024-03-22T11:28:59;10.20;99.90
35127;DHT22;21300;52.006;5.798;2024-03-22T11:31:25;10.20;99.90
35127;DHT22;21300;52.006;5.798;2024-03-22T11:33:56;10.10;99.90
35127;DHT22;21300;52.006;5.798;2024-03-22T11:36:22;10.10;99.90
35127;DHT22;21300;52.006;5.798;2024-03-22T11:38:49;10.20;99.90
35127;DHT22;21300;52.006;5.798;2024-03-22T11:41:21;10.20;99.90
35127;DHT22;21300;52.006;5.798;2024-03-22T11:43:48;10.30;99.90
35127;DHT22;21300;52.006;5.798;2024-03-22T11:46:15;10.30;99.90
35127;DHT22;21300;52.006;5.798;2024-03-22T11:48:41;10.40;99.90
35127;DHT22;21300;52.006;5.798;2024-03-22T11:51:10;10.30;99.90
35127;DHT22;21300;52.006;5.798;2024-03-22T11:53:36;10.30;99.90
35127;DHT22;21300;52.006;5.798;2024-03-22T11:56:03;10.30;99.90
35127;DHT22;21300;52.006;5.798;2024-03-22T11:58:29;10.40;99.90
35127;DHT22;21300;52.006;5.798;2024-03-22T12:00:59;10.40;99.90
35127;DHT22;21300;52.006;5.798;2024-03-22T12:03:25;10.40;99.90
35127;DHT22;21300;52.006;5.798;2024-03-22T12:05:54;10.40;99.90
35127;DHT22;21300;52.006;5.798;2024-03-22T12:08:19;10.40;99.90
35127;DHT22;21300;52.006;5.798;2024-03-22T12:10:45;10.40;99.90
35127;DHT22;21300;52.006;5.798;2024-03-22T12:13:11;10.60;99.90
35127;DHT22;21300;52.006;5.798;2024-03-22T12:15:36;10.60;99.90
35127;DHT22;21300;52.006;5.798;2024-03-22T12:18:02;10.70;99.90
35127;DHT22;21300;52.006;5.798;2024-03-22T12:20:28;10.70;99.90
35127;DHT22;21300;52.006;5.798;2024-03-22T12:22:55;10.70;99.90
35127;DHT22;21300;52.006;5.798;2024-03-22T12:25:21;10.70;99.90
35127;DHT22;21300;52.006;5.798;2024-03-22T12:27:46;10.70;99.90
35127;DHT22;21300;52.006;5.798;2024-03-22T12:30:12;10.80;99.90
35127;DHT22;21300;52.006;5.798;2024-03-22T12:32:38;10.90;99.90
35127;DHT22;21300;52.006;5.798;2024-03-22T12:35:04;10.90;99.90
35127;DHT22;21300;52.006;5.798;2024-03-22T12:37:30;10.90;99.90
35127;DHT22;21300;52.006;5.798;2024-03-22T12:39:56;10.80;99.90
35127;DHT22;21300;52.006;5.798;2024-03-22T12:42:22;10.70;99.90
35127;DHT22;21300;52.006;5.798;2024-03-22T12:44:48;10.70;99.90
35127;DHT22;21300;52.006;5.798;2024-03-22T12:47:14;10.60;99.90
35127;DHT22;21300;52.006;5.798;2024-03-22T12:49:39;10.80;99.90
35127;DHT22;21300;52.006;5.798;2024-03-22T12:52:06;10.80;99.90
35127;DHT22;21300;52.006;5.798;2024-03-22T12:54:32;10.80;99.90
35127;DHT22;21300;52.006;5.798;2024-03-22T12:56:58;10.90;99.90
35127;DHT22;21300;52.006;5.798;2024-03-22T12:59:23;10.80;99.90
35127;DHT22;21300;52.006;5.798;2024-03-22T13:01:49;10.80;99.90
35127;DHT22;21300;52.006;5.798;2024-03-22T13:04:14;10.80;99.90
35127;DHT22;21300;52.006;5.798;2024-03-22T13:06:40;10.80;99.90
35127;DHT22;21300;52.006;5.798;2024-03-22T13:09:06;10.70;99.90
35127;DHT22;21300;52.006;5.798;2024-03-22T13:11:35;10.60;99.90
35127;DHT22;21300;52.006;5.798;2024-03-22T13:14:00;10.60;99.90
35127;DHT22;21300;52.006;5.798;2024-03-22T13:16:26;10.70;99.90
35127;DHT22;21300;52.006;5.798;2024-03-22T13:18:52;10.70;99.90
35127;DHT22;21300;52.006;5.798;2024-03-22T13:21:17;10.60;99.90
35127;DHT22;21300;52.006;5.798;2024-03-22T13:23:43;10.50;99.90
35127;DHT22;21300;52.006;5.798;2024-03-22T13:26:09;10.50;99.90
35127;DHT22;21300;52.006;5.798;2024-03-22T13:28:34;10.60;99.90
35127;DHT22;21300;52.006;5.798;2024-03-22T13:31:04;10.60;99.90
35127;DHT22;21300;52.006;5.798;2024-03-22T13:33:35;10.50;99.90
35127;DHT22;21300;52.006;5.798;2024-03-22T13:36:02;10.50;99.90
35127;DHT22;21300;52.006;5.798;2024-03-22T13:38:30;10.60;99.90
35127;DHT22;21300;52.006;5.798;2024-03-22T13:40:56;10.60;99.90
35127;DHT22;21300;52.006;5.798;2024-03-22T13:43:22;10.40;99.90
35127;DHT22;21300;52.006;5.798;2024-03-22T13:45:51;10.40;99.90
35127;DHT22;21300;52.006;5.798;2024-03-22T13:48:22;10.30;99.90
35127;DHT22;21300;52.006;5.798;2024-03-22T13:50:56;10.60;99.90
35127;DHT22;21300;52.006;5.798;2024-03-22T13:53:22;10.90;99.90
35127;DHT22;21300;52.006;5.798;2024-03-22T13:55:49;11.00;99.90
35127;DHT22;21300;52.006;5.798;2024-03-22T13:58:15;10.80;99.90
35127;DHT22;21300;52.006;5.798;2024-03-22T14:00:41;10.70;99.90
35127;DHT22;21300;52.006;5.798;2024-03-22T14:03:07;10.60;99.90
35127;DHT22;21300;52.006;5.798;2024-03-22T14:05:32;10.60;99.90
35127;DHT22;21300;52.006;5.798;2024-03-22T14:07:59;10.60;99.90
35127;DHT22;21300;52.006;5.798;2024-03-22T14:10:24;10.70;99.90
35127;DHT22;21300;52.006;5.798;2024-03-22T14:12:53;10.70;99.90
35127;DHT22;21300;52.006;5.798;2024-03-22T14:15:19;10.70;99.90
35127;DHT22;21300;52.006;5.798;2024-03-22T14:17:45;10.60;99.90
35127;DHT22;21300;52.006;5.798;2024-03-22T14:20:10;10.50;99.90
35127;DHT22;21300;52.006;5.798;2024-03-22T14:22:39;10.50;99.90
35127;DHT22;21300;52.006;5.798;2024-03-22T14:25:06;10.60;99.90
35127;DHT22;21300;52.006;5.798;2024-03-22T14:27:33;10.60;99.90
35127;DHT22;21300;52.006;5.798;2024-03-22T14:29:59;10.70;99.90
35127;DHT22;21300;52.006;5.798;2024-03-22T14:32:25;10.70;99.90
35127;DHT22;21300;52.006;5.798;2024-03-22T14:34:51;10.70;99.90
35127;DHT22;21300;52.006;5.798;2024-03-22T14:37:17;10.60;99.90
35127;DHT22;21300;52.006;5.798;2024-03-22T14:39:42;10.60;99.90
35127;DHT22;21300;52.006;5.798;2024-03-22T14:42:08;10.60;99.90
35127;DHT22;21300;52.006;5.798;2024-03-22T14:44:34;10.70;99.90
35127;DHT22;21300;52.006;5.798;2024-03-22T14:47:00;10.70;99.90
35127;DHT22;21300;52.006;5.798;2024-03-22T14:49:25;10.50;99.90
35127;DHT22;21300;52.006;5.798;2024-03-22T14:51:51;10.40;99.90
35127;DHT22;21300;52.006;5.798;2024-03-22T14:54:17;10.40;99.90
35127;DHT22;21300;52.006;5.798;2024-03-22T14:56:43;10.50;99.90
35127;DHT22;21300;52.006;5.798;2024-03-22T14:59:08;10.50;99.90
35127;DHT22;21300;52.006;5.798;2024-03-22T15:01:34;10.40;99.90
35127;DHT22;21300;52.006;5.798;2024-03-22T15:04:00;10.40;99.90
35127;DHT22;21300;52.006;5.798;2024-03-22T15:06:26;10.30;99.90
35127;DHT22;21300;52.006;5.798;2024-03-22T15:08:55;10.30;99.90
35127;DHT22;21300;52.006;5.798;2024-03-22T15:11:20;10.40;99.90
35127;DHT22;21300;52.006;5.798;2024-03-22T15:13:46;10.30;99.90
35127;DHT22;21300;52.006;5.798;2024-03-22T15:16:12;10.30;99.90
35127;DHT22;21300;52.006;5.798;2024-03-22T15:18:39;10.20;99.90
35127;DHT22;21300;52.006;5.798;2024-03-22T15:21:07;10.30;99.90
35127;DHT22;21300;52.006;5.798;2024-03-22T15:23:33;10.30;99.90
35127;DHT22;21300;52.006;5.798;2024-03-22T15:25:58;10.30;99.90